Time;durP1;ratioP1;P1;durP2;ratioP2;P2;SDS_P1;SDS_P2;PMS_P1;PMS_P2;Temp;Humidity;BMP_temperature;BMP_pressure;BME280_temperature;BME280_humidity;BME280_pressure;Samples;Min_cycle;Max_cycle;Signal;HPM_P1;HPM_P2
2021/04/06 00:01:46;;;;;;;7.70;3.43;;;;;;;-0.05;80.30;98400.61;232769;1174;115222;-64
2021/04/06 00:06:56;;;;;;;3.75;2.33;;;;;;;-0.17;80.04;98410.05;234018;1174;115174;-65
2021/04/06 00:12:01;;;;;;;4.60;2.95;;;;;;;-0.18;80.27;98408.43;233720;1174;115030;-65
2021/04/06 00:17:07;;;;;;;;;;;;;;;-0.29;80.70;98426.52;233389;1174;115315;-64
2021/04/06 00:22:15;;;;;;;4.43;2.80;;;;;;;-0.29;81.36;98423.91;234911;1174;104974;-65
2021/04/06 00:27:30;;;;;;;6.13;2.58;;;;;;;-0.23;79.97;98423.12;233225;1174;115342;-64
2021/04/06 00:32:36;;;;;;;2.33;1.38;;;;;;;-0.21;79.79;98421.11;232977;1174;115271;-64
2021/04/06 00:37:48;;;;;;;1.30;1.20;;;;;;;-0.22;80.07;98435.20;233541;1174;118916;-65
2021/04/06 00:43:04;;;;;;;7.05;2.13;;;;;;;-0.18;79.08;98439.05;233342;1174;116737;-64
2021/04/06 00:48:12;;;;;;;2.80;1.30;;;;;;;-0.15;78.98;98436.84;233093;1175;115490;-65
2021/04/06 00:53:15;;;;;;;2.63;1.43;;;;;;;-0.11;79.69;98445.92;232863;1174;115567;-65
2021/04/06 00:58:18;;;;;;;2.90;1.60;;;;;;;-0.09;79.26;98448.35;233320;1174;116921;-64
2021/04/06 01:03:24;;;;;;;2.40;0.87;;;;;;;-0.10;79.37;98462.45;233550;1174;115803;-64
2021/04/06 01:08:29;;;;;;;9.83;2.20;;;;;;;-0.05;79.31;98479.20;233069;1174;117182;-64
2021/04/06 01:13:37;;;;;;;7.00;1.70;;;;;;;0.00;77.97;98489.09;232765;1174;115876;-65
2021/04/06 01:18:44;;;;;;;2.87;1.77;;;;;;;0.04;77.57;98500.77;232991;1174;115285;-64
2021/04/06 01:23:50;;;;;;;5.73;1.80;;;;;;;0.09;78.13;98503.60;234560;1174;115666;-64
2021/04/06 01:28:56;;;;;;;4.87;1.83;;;;;;;0.11;79.02;98496.36;232864;1174;115518;-65
2021/04/06 01:34:01;;;;;;;5.70;2.00;;;;;;;0.14;77.34;98495.16;234190;1167;115655;-65
2021/04/06 01:39:05;;;;;;;6.30;1.77;;;;;;;0.15;77.38;98499.39;233706;1174;115903;-63
2021/04/06 01:44:09;;;;;;;4.07;2.00;;;;;;;0.20;77.67;98513.52;235011;1174;115490;-65
2021/04/06 01:49:19;;;;;;;4.78;1.70;;;;;;;0.18;78.00;98515.53;235012;1170;114769;-65
2021/04/06 01:54:24;;;;;;;6.07;1.50;;;;;;;0.17;77.40;98516.53;234652;1174;115213;-65
2021/04/06 01:59:34;;;;;;;1.95;1.75;;;;;;;0.16;77.48;98519.35;234676;1174;114707;-65
2021/04/06 02:04:44;;;;;;;5.20;2.00;;;;;;;0.19;76.98;98526.81;234518;1171;116138;-66
2021/04/06 02:09:48;;;;;;;4.58;4.18;;;;;;;0.19;77.35;98537.30;234156;1174;118260;-65
2021/04/06 02:14:57;;;;;;;6.77;2.53;;;;;;;0.17;77.77;98541.92;233290;1174;114414;-66
2021/04/06 02:20:04;;;;;;;3.25;3.05;;;;;;;0.14;77.92;98542.31;233645;1175;115884;-64
2021/04/06 02:25:08;;;;;;;8.10;2.83;;;;;;;0.16;79.41;98530.64;233625;1174;114490;-65
2021/04/06 02:30:11;;;;;;;4.90;3.18;;;;;;;0.19;78.14;98540.73;232821;1174;117985;-64
2021/04/06 02:35:14;;;;;;;2.58;2.38;;;;;;;0.19;77.45;98548.59;233413;1174;115988;-65
2021/04/06 02:40:19;;;;;;;3.77;3.00;;;;;;;0.10;76.97;98555.00;233580;1174;115813;-64
2021/04/06 02:45:30;;;;;;;4.65;3.90;;;;;;;0.16;78.25;98556.84;232801;1174;114574;-64
2021/04/06 02:50:36;;;;;;;5.35;2.90;;;;;;;0.19;78.79;98559.08;232640;1176;114878;-65
2021/04/06 02:55:40;;;;;;;4.00;3.50;;;;;;;0.11;79.50;98554.00;233116;1174;115175;-65
2021/04/06 03:00:43;;;;;;;7.95;4.30;;;;;;;0.10;79.46;98562.86;233428;1176;115223;-65
2021/04/06 03:05:46;;;;;;;6.93;2.58;;;;;;;0.10;78.26;98564.67;233126;1174;115645;-64
2021/04/06 03:10:56;;;;;;;4.73;3.60;;;;;;;0.14;78.40;98555.42;233011;1174;116639;-65
2021/04/06 03:16:04;;;;;;;5.05;2.80;;;;;;;0.10;79.05;98552.38;233720;1174;214737;-65
2021/04/06 03:21:12;;;;;;;9.95;4.25;;;;;;;0.13;79.24;98561.66;233580;1174;115540;-65
2021/04/06 03:26:15;;;;;;;4.87;3.30;;;;;;;0.15;78.77;98563.09;234053;1174;115149;-64
2021/04/06 03:31:20;;;;;;;6.33;2.15;;;;;;;0.13;79.09;98567.72;233927;1174;115213;-65
2021/04/06 03:36:31;;;;;;;4.65;1.55;;;;;;;0.10;79.13;98575.97;233420;1174;115635;-64
2021/04/06 03:41:37;;;;;;;6.40;2.77;;;;;;;0.11;79.17;98582.83;235243;1170;114312;-65
2021/04/06 03:46:43;;;;;;;7.20;2.80;;;;;;;0.13;78.36;98587.87;233467;1174;116225;-62
2021/04/06 03:51:58;;;;;;;2.20;1.58;;;;;;;0.15;79.58;98597.16;234459;1174;114435;-64
2021/04/06 03:57:49;;;;;;;4.20;2.60;;;;;;;0.19;78.71;98603.63;234211;1170;115314;-64
2021/04/06 04:02:52;;;;;;;13.10;4.23;;;;;;;0.21;77.70;98588.52;234992;1176;116595;-65
2021/04/06 04:07:56;;;;;;;6.50;2.60;;;;;;;0.22;77.05;98591.94;234451;1174;115351;-66
2021/04/06 04:12:59;;;;;;;13.68;3.83;;;;;;;0.28;77.79;98581.48;234565;1174;115546;-65
2021/04/06 04:18:02;;;;;;;5.87;2.90;;;;;;;0.28;76.79;98591.98;233826;1174;115292;-64
2021/04/06 04:23:06;;;;;;;6.33;2.30;;;;;;;0.19;77.62;98587.90;233510;1174;115249;-66
2021/04/06 04:28:09;;;;;;;9.83;4.70;;;;;;;0.24;76.55;98595.18;233663;1174;115682;-64
2021/04/06 04:33:14;;;;;;;4.87;2.23;;;;;;;0.21;76.72;98593.76;232998;1174;116798;-65
2021/04/06 04:38:18;;;;;;;8.73;2.70;;;;;;;0.17;76.82;98600.39;233197;1174;115243;-65
2021/04/06 04:43:23;;;;;;;3.83;2.23;;;;;;;0.15;77.44;98606.83;232688;1174;205306;-64
2021/04/06 04:48:26;;;;;;;7.43;2.55;;;;;;;0.15;76.59;98610.25;233756;1174;117505;-65
2021/04/06 04:53:30;;;;;;;2.50;2.00;;;;;;;0.16;77.72;98619.73;232607;1174;114983;-64
2021/04/06 04:58:33;;;;;;;11.83;3.60;;;;;;;0.12;76.40;98625.55;232599;1174;114671;-64
2021/04/06 05:03:37;;;;;;;10.65;3.83;;;;;;;0.13;76.26;98633.22;233560;1167;116274;-64
2021/04/06 05:08:41;;;;;;;3.73;1.67;;;;;;;0.17;76.12;98629.22;233528;1174;115924;-64
2021/04/06 05:13:46;;;;;;;5.18;1.25;;;;;;;0.23;74.87;98631.06;232670;1174;115852;-63
2021/04/06 05:18:50;;;;;;;13.00;2.35;;;;;;;0.42;75.19;98633.94;233215;1174;118014;-63
2021/04/06 05:23:54;;;;;;;4.73;1.68;;;;;;;0.51;74.04;98638.83;233761;1174;117753;-65
2021/04/06 05:28:57;;;;;;;5.98;4.13;;;;;;;0.80;73.59;98637.69;232403;1174;115236;-66
2021/04/06 05:34:01;;;;;;;4.30;2.38;;;;;;;1.04;72.23;98628.44;233542;1174;115656;-65
2021/04/06 05:39:04;;;;;;;5.45;2.88;;;;;;;1.29;71.62;98636.52;232773;1174;116043;-66
2021/04/06 05:44:10;;;;;;;2.90;2.13;;;;;;;1.71;70.46;98629.23;232430;1174;115921;-66
2021/04/06 05:49:20;;;;;;;8.30;3.97;;;;;;;1.77;70.50;98629.22;233459;1174;115621;-67
2021/04/06 05:54:25;;;;;;;4.08;2.48;;;;;;;1.75;70.55;98640.95;234716;1174;116698;-68
2021/04/06 05:59:29;;;;;;;5.70;2.93;;;;;;;1.56;70.30;98642.56;235230;1174;116946;-65
2021/04/06 06:04:36;;;;;;;7.05;3.90;;;;;;;1.48;70.29;98640.98;234963;1174;114936;-65
2021/04/06 06:09:39;;;;;;;8.93;6.03;;;;;;;1.54;70.09;98645.39;234248;1176;115516;-65
2021/04/06 06:14:44;;;;;;;7.80;3.47;;;;;;;1.88;69.91;98652.22;234351;1174;116160;-64
2021/04/06 06:19:58;;;;;;;4.40;3.50;;;;;;;2.03;69.56;98649.38;233932;1174;115381;-66
2021/04/06 06:25:09;;;;;;;6.87;3.70;;;;;;;2.11;67.90;98654.42;232510;1174;115466;-65
2021/04/06 06:30:30;;;;;;;4.90;2.30;;;;;;;1.95;68.92;98649.59;233454;1174;115190;-65
2021/04/06 06:35:35;;;;;;;8.67;3.83;;;;;;;1.83;67.38;98656.50;233225;1174;115660;-65
2021/04/06 06:40:39;;;;;;;5.08;2.85;;;;;;;1.73;67.80;98649.03;232638;1174;115391;-67
2021/04/06 06:45:44;;;;;;;1.88;1.63;;;;;;;1.69;69.25;98655.70;233356;1174;115977;-68
2021/04/06 06:50:51;;;;;;;11.23;4.50;;;;;;;1.72;68.63;98654.48;233277;1174;115663;-66
2021/04/06 06:55:54;;;;;;;9.30;4.00;;;;;;;1.61;67.63;98651.45;233049;1174;115544;-67
2021/04/06 07:00:58;;;;;;;6.13;3.00;;;;;;;1.61;69.80;98659.34;232777;1174;215295;-67
2021/04/06 07:06:20;;;;;;;3.80;3.40;;;;;;;1.71;66.78;98656.30;232703;1174;117702;-66
2021/04/06 07:11:24;;;;;;;4.70;3.00;;;;;;;1.74;67.96;98657.72;232473;1176;116238;-68
2021/04/06 07:16:29;;;;;;;5.35;3.60;;;;;;;1.79;67.40;98655.30;232897;1174;115675;-68
2021/04/06 07:21:33;;;;;;;11.60;4.23;;;;;;;1.79;68.34;98652.66;232479;1174;116075;-67
2021/04/06 07:26:37;;;;;;;6.38;3.35;;;;;;;1.85;66.59;98657.88;232614;1174;115727;-65
2021/04/06 07:31:42;;;;;;;9.85;5.20;;;;;;;1.92;68.00;98668.39;233897;1174;115580;-66
2021/04/06 07:36:47;;;;;;;7.50;3.77;;;;;;;1.89;66.42;98664.35;233128;1176;115887;-66
2021/04/06 07:41:52;;;;;;;7.23;4.95;;;;;;;1.79;67.23;98668.43;232679;1174;116252;-67
2021/04/06 07:46:55;;;;;;;12.23;3.48;;;;;;;1.79;67.02;98673.69;232377;1174;115804;-67
2021/04/06 07:52:05;;;;;;;5.30;4.85;;;;;;;1.84;66.62;98681.73;233093;1174;116925;-67
2021/04/06 07:57:42;;;;;;;4.70;2.53;;;;;;;1.81;65.73;98687.42;234950;1174;116081;-67
2021/04/06 08:02:48;;;;;;;9.18;4.33;;;;;;;1.92;66.75;98695.48;235214;1174;115099;-68
2021/04/06 08:07:52;;;;;;;7.93;3.35;;;;;;;1.79;65.84;98699.95;234464;1174;114465;-66
2021/04/06 08:12:56;;;;;;;9.20;5.43;;;;;;;1.97;66.61;98708.02;235161;1174;114542;-66
2021/04/06 08:18:00;;;;;;;5.48;4.38;;;;;;;2.06;66.47;98709.42;233402;1174;115141;-67
2021/04/06 08:23:15;;;;;;;4.25;2.85;;;;;;;2.30;64.45;98706.13;233530;1174;115718;-67
2021/04/06 08:28:31;;;;;;;4.30;3.90;;;;;;;2.76;65.00;98707.77;233904;1175;115908;-67
2021/04/06 08:33:34;;;;;;;9.83;4.10;;;;;;;3.31;60.69;98700.19;232587;1175;116152;-67
2021/04/06 08:38:37;;;;;;;6.73;3.90;;;;;;;3.48;59.43;98705.73;232566;1174;116153;-67
2021/04/06 08:43:52;;;;;;;4.25;2.10;;;;;;;3.36;60.27;98708.27;233235;1174;115949;-69
2021/04/06 08:48:58;;;;;;;3.50;2.38;;;;;;;3.18;58.63;98714.23;232458;1174;116633;-70
2021/04/06 08:54:03;;;;;;;8.45;3.40;;;;;;;3.33;59.77;98713.95;232634;1174;115749;-68
2021/04/06 08:59:37;;;;;;;2.35;2.15;;;;;;;3.11;58.49;98720.55;233889;1174;114699;-66
2021/04/06 09:04:50;;;;;;;4.80;2.83;;;;;;;3.20;57.71;98717.47;232850;1174;119391;-67
2021/04/06 09:10:07;;;;;;;6.15;2.55;;;;;;;3.30;60.02;98701.21;232438;1174;115437;-67
2021/04/06 09:15:15;;;;;;;7.78;2.60;;;;;;;3.41;59.40;98705.77;233674;1169;116695;-69
2021/04/06 09:20:19;;;;;;;2.97;2.10;;;;;;;3.50;59.35;98704.50;232625;1174;115328;-68
2021/04/06 09:25:29;;;;;;;11.40;3.20;;;;;;;3.60;57.50;98696.94;233283;1174;114686;-67
2021/04/06 09:30:40;;;;;;;4.60;4.05;;;;;;;3.66;56.40;98701.34;233675;1174;115949;-68
2021/04/06 09:35:53;;;;;;;5.00;2.50;;;;;;;3.57;56.38;98705.27;232918;1170;114730;-68
2021/04/06 09:40:57;;;;;;;11.43;4.43;;;;;;;3.53;57.20;98704.08;233318;1173;115317;-69
2021/04/06 09:46:05;;;;;;;6.33;2.73;;;;;;;3.45;59.36;98717.50;233022;1174;116607;-68
2021/04/06 09:51:08;;;;;;;;;;;;;;;3.35;56.47;98711.92;234021;1174;115876;-67
2021/04/06 09:56:13;;;;;;;6.13;3.38;;;;;;;3.21;56.63;98711.19;235583;1173;103173;-67
2021/04/06 10:01:25;;;;;;;6.13;2.55;;;;;;;3.45;58.27;98711.42;235071;1167;116343;-67
2021/04/06 10:06:42;;;;;;;4.33;2.00;;;;;;;3.27;58.62;98710.34;235064;1174;114477;-67
2021/04/06 10:11:48;;;;;;;3.10;1.73;;;;;;;3.37;57.14;98707.22;235139;1170;115965;-68
2021/04/06 10:17:04;;;;;;;6.90;1.80;;;;;;;3.78;59.06;98696.16;235135;1174;116114;-69
2021/04/06 10:22:13;;;;;;;4.85;2.55;;;;;;;4.13;56.91;98704.36;233753;1174;116872;-67
2021/04/06 10:27:20;;;;;;;3.05;2.50;;;;;;;4.16;54.96;98700.48;232478;1174;115477;-70
2021/04/06 10:32:29;;;;;;;5.08;2.83;;;;;;;4.56;51.81;98695.59;233000;1174;115078;-68
2021/04/06 10:37:50;;;;;;;4.65;2.75;;;;;;;5.06;52.66;98688.23;233475;1174;115019;-68
2021/04/06 10:42:58;;;;;;;3.58;1.20;;;;;;;5.31;50.39;98686.23;232833;1174;115655;-67
2021/04/06 10:48:24;;;;;;;4.65;1.78;;;;;;;5.30;47.17;98683.81;233846;1174;115513;-70
2021/04/06 10:53:37;;;;;;;6.00;2.77;;;;;;;5.39;48.67;98696.48;233381;1174;115210;-70
2021/04/06 10:58:47;;;;;;;3.68;1.23;;;;;;;5.57;47.10;98700.06;232636;1174;114615;-69
2021/04/06 11:03:55;;;;;;;8.88;2.50;;;;;;;5.69;46.17;98687.67;233357;1174;115407;-70
2021/04/06 11:09:09;;;;;;;5.50;2.70;;;;;;;6.00;49.86;98694.51;232772;1174;115256;-70
2021/04/06 11:14:21;;;;;;;4.67;2.60;;;;;;;5.86;48.08;98701.82;232657;1174;115153;-69
2021/04/06 11:19:28;;;;;;;6.78;3.20;;;;;;;5.87;46.10;98694.69;233544;1174;114500;-69
2021/04/06 11:24:33;;;;;;;3.85;2.10;;;;;;;6.20;46.21;98696.79;232417;1174;115481;-68
2021/04/06 11:29:39;;;;;;;3.07;2.53;;;;;;;6.13;47.33;98698.73;233603;1174;115314;-69
2021/04/06 11:34:44;;;;;;;3.23;1.97;;;;;;;6.08;50.00;98691.52;232621;1174;115189;-68
2021/04/06 11:39:48;;;;;;;4.03;2.10;;;;;;;6.12;49.78;98679.42;233553;1167;115700;-68
2021/04/06 11:44:53;;;;;;;2.30;2.10;;;;;;;5.94;47.36;98685.64;232897;1174;114611;-67
2021/04/06 11:49:56;;;;;;;5.57;2.00;;;;;;;6.35;47.60;98681.25;232551;1174;115125;-66
2021/04/06 11:55:00;;;;;;;3.45;2.40;;;;;;;6.39;48.36;98679.75;234438;1174;115082;-67
2021/04/06 12:00:08;;;;;;;4.83;2.20;;;;;;;6.38;48.70;98686.89;234161;1174;193378;-67
2021/04/06 12:05:12;;;;;;;6.03;3.40;;;;;;;6.27;45.41;98674.47;235072;1173;115201;-67
2021/04/06 12:10:20;;;;;;;2.60;1.68;;;;;;;6.08;47.72;98673.81;235023;1169;114933;-68
2021/04/06 12:15:23;;;;;;;3.70;2.80;;;;;;;5.85;48.54;98668.47;235016;1171;115423;-69
2021/04/06 12:20:26;;;;;;;2.68;2.48;;;;;;;5.95;47.50;98663.45;234991;1174;115283;-70
2021/04/06 12:25:29;;;;;;;13.85;4.28;;;;;;;6.63;47.87;98660.11;233955;1174;117454;-68
2021/04/06 12:30:32;;;;;;;2.77;1.97;;;;;;;6.40;46.66;98655.70;234707;1174;114768;-66
2021/04/06 12:35:35;;;;;;;7.35;1.93;;;;;;;6.34;47.10;98655.82;233787;1174;115089;-66
2021/04/06 12:40:38;;;;;;;6.20;2.30;;;;;;;6.08;48.58;98650.00;233732;1174;115567;-66
2021/04/06 12:45:41;;;;;;;3.88;1.85;;;;;;;5.73;46.74;98641.24;233148;1174;115229;-65
2021/04/06 12:50:45;;;;;;;2.90;2.15;;;;;;;5.65;46.91;98650.31;233090;1170;114383;-66
2021/04/06 12:55:47;;;;;;;4.95;3.50;;;;;;;5.95;47.91;98644.13;232457;1174;115033;-67
2021/04/06 13:00:50;;;;;;;3.73;1.80;;;;;;;6.00;47.36;98631.02;233022;1174;115183;-67
2021/04/06 13:05:53;;;;;;;7.18;3.18;;;;;;;6.03;49.03;98635.85;232462;1170;114344;-68
2021/04/06 13:10:56;;;;;;;4.28;2.15;;;;;;;6.03;47.79;98630.56;233433;1176;115836;-67
2021/04/06 13:15:59;;;;;;;4.80;3.45;;;;;;;6.12;46.46;98637.08;232375;1174;115089;-67
2021/04/06 13:21:02;;;;;;;4.10;2.10;;;;;;;6.01;45.19;98627.34;232505;1176;114835;-66
2021/04/06 13:26:05;;;;;;;4.55;2.80;;;;;;;5.69;44.17;98630.31;232564;1174;115841;-69
2021/04/06 13:31:09;;;;;;;2.93;2.00;;;;;;;5.47;43.82;98629.28;232585;1174;115690;-69
2021/04/06 13:36:12;;;;;;;3.08;2.73;;;;;;;5.58;46.06;98627.66;232491;1174;116132;-69
2021/04/06 13:41:16;;;;;;;2.85;2.10;;;;;;;5.58;46.84;98628.46;232565;1174;115111;-67
2021/04/06 13:46:20;;;;;;;7.45;2.33;;;;;;;5.72;44.39;98627.22;232690;1174;114762;-66
2021/04/06 13:51:26;;;;;;;6.20;2.80;;;;;;;5.71;43.69;98628.25;233604;1174;115227;-66
2021/04/06 13:56:30;;;;;;;9.13;2.45;;;;;;;5.84;44.20;98634.32;232523;1167;114806;-66
2021/04/06 14:01:34;;;;;;;2.70;1.17;;;;;;;6.01;46.24;98617.56;233288;1174;115130;-66
2021/04/06 14:06:38;;;;;;;3.10;1.53;;;;;;;5.83;44.50;98624.78;234294;1174;115403;-67
2021/04/06 14:11:41;;;;;;;5.98;2.30;;;;;;;5.70;43.10;98626.64;234977;1174;117096;-68
2021/04/06 14:16:44;;;;;;;3.20;1.93;;;;;;;5.61;44.51;98628.01;234567;1170;115194;-70
2021/04/06 14:21:47;;;;;;;5.35;2.45;;;;;;;5.65;44.13;98628.36;233491;1174;115264;-68
2021/04/06 14:26:50;;;;;;;5.00;1.90;;;;;;;5.73;42.11;98628.83;233749;1174;115466;-67
2021/04/06 14:31:53;;;;;;;6.73;2.67;;;;;;;5.66;42.70;98629.97;233978;1174;114782;-68
2021/04/06 14:36:56;;;;;;;2.67;1.60;;;;;;;5.55;41.47;98623.63;233222;1174;115453;-67
2021/04/06 14:41:59;;;;;;;2.20;1.68;;;;;;;5.50;41.69;98620.09;232648;1174;116373;-66
2021/04/06 14:47:04;;;;;;;8.80;3.10;;;;;;;5.40;43.74;98620.65;232559;1174;117348;-67
2021/04/06 14:52:11;;;;;;;4.33;1.97;;;;;;;5.19;45.20;98614.08;233180;1174;116083;-66
2021/04/06 14:57:15;;;;;;;4.90;3.30;;;;;;;5.05;45.09;98616.11;233259;1174;116965;-67
2021/04/06 15:02:23;;;;;;;10.00;3.63;;;;;;;5.04;45.08;98617.14;232624;1171;115967;-66
2021/04/06 15:07:27;;;;;;;5.87;2.40;;;;;;;4.99;49.26;98616.20;232937;1174;114923;-65
2021/04/06 15:12:30;;;;;;;3.18;2.70;;;;;;;4.94;45.08;98610.78;233609;1174;116005;-64
2021/04/06 15:17:35;;;;;;;4.40;2.40;;;;;;;4.73;43.77;98604.98;232557;1174;117528;-65
2021/04/06 15:22:42;;;;;;;1.67;1.20;;;;;;;4.66;46.64;98608.74;232818;1173;115565;-67
2021/04/06 15:27:51;;;;;;;10.90;2.67;;;;;;;4.66;45.21;98603.46;233188;1174;116259;-64
2021/04/06 15:32:54;;;;;;;4.93;2.70;;;;;;;4.69;45.75;98609.10;233529;1174;117085;-67
2021/04/06 15:38:08;;;;;;;3.63;3.33;;;;;;;4.66;46.95;98603.46;232501;1174;116617;-64
2021/04/06 15:43:12;;;;;;;4.30;2.80;;;;;;;4.67;45.64;98605.88;232480;1174;115768;-65
2021/04/06 15:48:21;;;;;;;2.47;2.27;;;;;;;4.65;45.87;98609.77;233227;1174;115549;-68
2021/04/06 15:53:25;;;;;;;4.57;2.43;;;;;;;4.55;44.57;98596.33;233662;1174;115871;-65
2021/04/06 15:58:29;;;;;;;2.30;2.10;;;;;;;4.51;43.69;98595.16;232666;1175;117029;-66
2021/04/06 16:03:31;;;;;;;1.10;1.00;;;;;;;4.37;46.41;98599.78;233093;1174;116654;-66
2021/04/06 16:08:36;;;;;;;3.93;2.60;;;;;;;4.30;45.48;98594.58;234749;1174;115395;-67
2021/04/06 16:13:40;;;;;;;3.20;2.90;;;;;;;4.25;47.74;98597.11;235173;1174;116880;-67
2021/04/06 16:18:50;;;;;;;5.58;3.30;;;;;;;4.17;49.03;98601.87;235156;1175;116439;-66
2021/04/06 16:23:57;;;;;;;4.65;3.00;;;;;;;4.11;46.15;98600.91;234354;1174;116080;-67
2021/04/06 16:29:00;;;;;;;5.48;4.85;;;;;;;4.03;49.95;98601.20;235196;1174;116771;-66
2021/04/06 16:34:09;;;;;;;7.75;3.05;;;;;;;3.95;50.30;98599.69;234962;1174;117796;-67
2021/04/06 16:39:13;;;;;;;6.97;3.67;;;;;;;3.83;49.94;98605.89;233653;1174;115093;-64
2021/04/06 16:44:16;;;;;;;8.55;3.50;;;;;;;3.68;49.51;98607.03;233235;1174;115147;-66
2021/04/06 16:49:20;;;;;;;6.10;2.95;;;;;;;3.56;50.26;98598.25;232809;1174;115149;-65
2021/04/06 16:54:26;;;;;;;5.98;3.13;;;;;;;3.46;53.35;98590.02;232809;1174;115217;-64
2021/04/06 16:59:29;;;;;;;3.80;3.20;;;;;;;3.36;53.39;98597.64;233513;1174;114371;-66
2021/04/06 17:04:33;;;;;;;5.80;2.75;;;;;;;3.24;51.39;98596.71;234134;1174;115298;-66
2021/04/06 17:09:40;;;;;;;4.87;3.80;;;;;;;3.09;51.52;98586.48;232615;1174;114842;-65
2021/04/06 17:14:43;;;;;;;7.45;3.53;;;;;;;3.01;50.82;98597.30;233155;1174;115669;-64
2021/04/06 17:19:46;;;;;;;3.95;2.25;;;;;;;2.84;51.32;98610.16;233590;1174;115117;-66
2021/04/06 17:24:51;;;;;;;7.95;3.75;;;;;;;2.73;53.42;98615.30;232495;1174;114647;-66
2021/04/06 17:29:54;;;;;;;6.40;5.67;;;;;;;2.57;53.93;98616.59;232458;1170;114854;-64
2021/04/06 17:34:57;;;;;;;7.60;5.18;;;;;;;2.44;59.29;98619.30;232881;1174;114765;-64
2021/04/06 17:40:01;;;;;;;5.27;3.10;;;;;;;2.23;57.15;98625.64;232596;1174;114786;-64
2021/04/06 17:45:09;;;;;;;11.05;3.95;;;;;;;2.06;59.37;98622.68;233643;1170;115225;-65
2021/04/06 17:50:13;;;;;;;5.70;3.55;;;;;;;1.85;59.22;98636.06;233210;1174;115305;-65
2021/04/06 17:55:18;;;;;;;7.23;3.08;;;;;;;1.59;59.67;98634.28;233111;1174;115837;-64
2021/04/06 18:00:28;;;;;;;4.60;2.90;;;;;;;1.35;60.84;98636.52;234028;1174;114986;-64
2021/04/06 18:05:31;;;;;;;7.53;3.43;;;;;;;1.11;61.05;98638.95;233942;1174;114630;-64
2021/04/06 18:10:34;;;;;;;3.83;2.75;;;;;;;0.91;64.39;98644.98;234030;1174;115487;-64
2021/04/06 18:15:38;;;;;;;10.80;4.10;;;;;;;0.71;62.85;98649.36;234591;1174;115404;-65
2021/04/06 18:20:41;;;;;;;6.38;4.05;;;;;;;0.54;63.06;98654.17;233640;1174;115670;-64
2021/04/06 18:25:47;;;;;;;4.55;2.80;;;;;;;0.40;64.05;98659.55;234846;1174;114776;-64
2021/04/06 18:30:53;;;;;;;13.43;4.00;;;;;;;0.26;65.25;98661.31;234131;1174;115197;-63
2021/04/06 18:36:09;;;;;;;6.15;3.08;;;;;;;0.14;65.25;98668.91;233053;1174;114837;-63
2021/04/06 18:41:15;;;;;;;6.70;3.60;;;;;;;-0.01;67.82;98663.00;233534;1175;114865;-64
2021/04/06 18:46:20;;;;;;;11.10;4.20;;;;;;;-0.12;67.25;98668.77;233537;1174;115764;-64
2021/04/06 18:51:30;;;;;;;8.30;4.17;;;;;;;-0.14;69.99;98668.14;233785;1170;115561;-64
2021/04/06 18:56:37;;;;;;;7.50;4.40;;;;;;;-0.14;70.27;98663.72;233137;1174;115027;-64
2021/04/06 19:01:41;;;;;;;9.60;4.40;;;;;;;-0.12;68.54;98669.57;233200;1174;115684;-64
2021/04/06 19:06:45;;;;;;;13.85;5.78;;;;;;;-0.17;68.57;98671.95;232437;1174;116476;-64
2021/04/06 19:11:49;;;;;;;12.65;5.53;;;;;;;-0.21;69.47;98675.95;232392;1174;115028;-63
2021/04/06 19:16:51;;;;;;;8.97;5.93;;;;;;;-0.21;70.90;98669.91;233118;1174;115187;-64
2021/04/06 19:21:55;;;;;;;12.40;6.38;;;;;;;-0.22;69.62;98657.81;233458;1174;114741;-63
2021/04/06 19:26:58;;;;;;;7.95;5.45;;;;;;;-0.21;69.85;98659.43;232712;1173;115194;-64
2021/04/06 19:32:02;;;;;;;11.23;6.35;;;;;;;-0.24;69.94;98663.23;233410;1174;115372;-63
2021/04/06 19:37:06;;;;;;;16.67;7.43;;;;;;;-0.23;69.49;98664.05;232646;1174;115498;-64
2021/04/06 19:42:10;;;;;;;17.43;8.80;;;;;;;-0.31;68.39;98662.41;232776;1174;116261;-64
2021/04/06 19:47:12;;;;;;;15.68;8.75;;;;;;;-0.42;68.65;98663.73;233738;1174;115710;-63
2021/04/06 19:52:16;;;;;;;21.17;9.53;;;;;;;-0.43;68.83;98661.30;232872;1174;115584;-64
2021/04/06 19:57:21;;;;;;;21.33;10.13;;;;;;;-0.50;71.57;98656.02;233990;1174;115768;-63
2021/04/06 20:02:23;;;;;;;21.60;10.35;;;;;;;-0.47;70.88;98658.25;234927;1174;114797;-64
2021/04/06 20:07:26;;;;;;;16.73;8.95;;;;;;;-0.49;69.96;98659.44;235037;1174;115997;-64
2021/04/06 20:12:29;;;;;;;17.00;9.98;;;;;;;-0.49;69.71;98655.02;233773;1174;115738;-64
2021/04/06 20:17:36;;;;;;;20.47;11.63;;;;;;;-0.46;69.82;98656.45;235038;1167;114737;-64
2021/04/06 20:22:40;;;;;;;16.03;8.93;;;;;;;-0.54;68.54;98661.81;232773;1174;115913;-64
2021/04/06 20:27:43;;;;;;;28.20;11.37;;;;;;;-0.55;68.97;98658.38;235054;1174;114858;-64
2021/04/06 20:32:49;;;;;;;24.10;11.20;;;;;;;-0.53;68.53;98653.77;234180;1174;116277;-64
2021/04/06 20:37:54;;;;;;;21.70;11.73;;;;;;;-0.46;67.77;98667.73;233717;1174;115416;-63
2021/04/06 20:42:59;;;;;;;26.33;10.87;;;;;;;-0.44;67.29;98676.20;233108;1174;115252;-63
2021/04/06 20:48:02;;;;;;;28.48;11.90;;;;;;;-0.41;67.55;98685.48;233431;1174;115818;-63
2021/04/06 20:53:06;;;;;;;25.40;11.70;;;;;;;-0.39;67.97;98679.06;232779;1175;115772;-64
2021/04/06 20:58:10;;;;;;;25.43;13.67;;;;;;;-0.39;67.27;98681.69;232630;1174;115273;-63
2021/04/06 21:03:13;;;;;;;17.70;10.90;;;;;;;-0.43;68.12;98672.58;232837;1174;115813;-63
2021/04/06 21:08:18;;;;;;;28.70;13.93;;;;;;;-0.39;67.41;98667.78;233698;1174;115263;-63
2021/04/06 21:13:21;;;;;;;23.45;10.70;;;;;;;-0.42;68.23;98666.35;232718;1174;115228;-64
2021/04/06 21:18:25;;;;;;;30.73;11.57;;;;;;;-0.41;68.59;98672.40;233197;1174;115652;-63
2021/04/06 21:23:29;;;;;;;20.23;11.23;;;;;;;-0.48;69.89;98669.72;233824;1174;116666;-63
2021/04/06 21:28:34;;;;;;;20.55;10.95;;;;;;;-0.46;69.91;98670.34;232941;1175;116067;-62
2021/04/06 21:33:37;;;;;;;21.83;12.58;;;;;;;-0.46;69.71;98678.20;232726;1174;115756;-63
2021/04/06 21:38:42;;;;;;;25.35;13.40;;;;;;;-0.51;70.09;98664.86;233232;1174;116568;-64
2021/04/06 21:43:46;;;;;;;19.75;11.20;;;;;;;-0.53;70.22;98679.14;232532;1174;115827;-64
2021/04/06 21:48:53;;;;;;;23.73;12.90;;;;;;;-0.66;70.96;98672.01;232834;1174;116125;-63
2021/04/06 21:53:56;;;;;;;31.00;13.10;;;;;;;-0.77;71.57;98660.23;233461;1168;115336;-62
2021/04/06 21:59:00;;;;;;;19.33;10.60;;;;;;;-0.82;73.74;98665.22;233796;1167;115002;-63
2021/04/06 22:04:03;;;;;;;20.90;11.30;;;;;;;-0.79;72.93;98658.80;233030;1174;115791;-63
2021/04/06 22:09:06;;;;;;;23.43;13.07;;;;;;;-0.81;72.90;98647.70;234483;1174;115704;-63
2021/04/06 22:14:09;;;;;;;19.90;11.97;;;;;;;-0.86;74.36;98647.45;233076;1174;116830;-63
2021/04/06 22:19:13;;;;;;;22.80;11.80;;;;;;;-0.87;74.30;98651.88;234688;1174;115481;-63
2021/04/06 22:24:17;;;;;;;20.80;10.67;;;;;;;-0.79;73.22;98640.48;234910;1174;116496;-63
2021/04/06 22:29:20;;;;;;;19.37;10.17;;;;;;;-0.78;73.43;98648.14;235247;1174;115884;-63
2021/04/06 22:34:23;;;;;;;26.60;11.50;;;;;;;-0.79;73.43;98659.61;234421;1176;116139;-63
2021/04/06 22:39:26;;;;;;;16.40;9.38;;;;;;;-0.79;73.72;98661.41;234049;1174;116476;-63
2021/04/06 22:44:30;;;;;;;18.48;10.83;;;;;;;-0.83;74.49;98660.98;232707;1174;115723;-63
2021/04/06 22:49:33;;;;;;;21.55;12.43;;;;;;;-0.84;73.91;98654.13;233108;1174;116168;-63
2021/04/06 22:54:36;;;;;;;21.03;10.35;;;;;;;-0.87;74.91;98653.69;233475;1174;117181;-63
2021/04/06 22:59:41;;;;;;;21.95;13.35;;;;;;;-0.89;74.85;98655.68;233241;1174;116177;-63
2021/04/06 23:04:45;;;;;;;23.93;11.68;;;;;;;-0.93;76.11;98654.46;233185;1167;115641;-63
2021/04/06 23:09:48;;;;;;;21.10;13.33;;;;;;;-0.94;75.94;98647.61;233426;1174;115525;-63
2021/04/06 23:14:53;;;;;;;22.03;11.03;;;;;;;-0.94;75.93;98651.03;233281;1167;116538;-63
2021/04/06 23:19:56;;;;;;;16.85;11.10;;;;;;;-0.93;75.66;98649.23;232789;1174;116221;-62
2021/04/06 23:25:01;;;;;;;18.73;11.93;;;;;;;-0.96;76.06;98649.59;232749;1174;116036;-63
2021/04/06 23:30:06;;;;;;;20.08;10.85;;;;;;;-1.00;76.72;98649.16;233244;1175;116321;-63